Denison, Texas
Current Conditions -  °F | °C
As of 4:15 AM on Saturday 20 Dec 2014 (Local Time) from KGYI Reporting Station
Overcast Overcast  
Wind Chill: 43°   Ceiling: 2200
Heat Index: 43°   Visibility: 10mi
Dew Point: 42°   Wind: 0mph
Humidity: 94%   Direction: NA
Pressure: 30.23"   Gusts: NA
Location:  33.76°N, 96.54°W
Report Text: KGYI 201015Z AUTO 00000KT 10SM OVC022 06/05 A3023 RMK AO2 T00620053
Loading
Personal Weather Stations






























Interactive Weather Map New forecast layout! Learn more

10-Day Weather Forecast

Advertisements
Track Severe Weather on mobile